createdAt,value
2019-03-13T00:00:36.683Z,60.40
2019-03-13T00:03:08.683Z,60.20
2019-03-13T00:05:40.040Z,60.10
2019-03-13T00:08:11.180Z,59.90
2019-03-13T00:10:43.380Z,59.90
2019-03-13T00:13:14.491Z,59.80
2019-03-13T00:15:45.784Z,59.80
2019-03-13T00:18:16.960Z,59.80
2019-03-13T00:20:48.162Z,59.60
2019-03-13T00:23:19.226Z,59.60
2019-03-13T00:25:50.383Z,59.40
2019-03-13T00:28:21.428Z,59.40
2019-03-13T00:30:52.700Z,59.20
2019-03-13T00:33:23.790Z,59.30
2019-03-13T00:35:54.850Z,59.50
2019-03-13T00:38:25.775Z,59.50
2019-03-13T00:40:57.159Z,59.70
2019-03-13T00:43:28.260Z,59.40
2019-03-13T00:45:59.543Z,59.50
2019-03-13T00:48:30.708Z,59.50
2019-03-13T00:51:01.906Z,59.30
2019-03-13T00:53:32.949Z,59.30
2019-03-13T00:56:04.202Z,59.30
2019-03-13T00:58:35.174Z,58.80
2019-03-13T01:01:19.276Z,59.50
2019-03-13T01:03:59.993Z,59.40
2019-03-13T01:06:37.281Z,59.60
2019-03-13T01:09:09.559Z,59.60
2019-03-13T01:11:40.801Z,59.70
2019-03-13T01:14:11.940Z,59.60
2019-03-13T01:16:42.950Z,59.60
2019-03-13T01:19:14.024Z,59.70
2019-03-13T01:21:45.162Z,59.80
2019-03-13T01:24:16.352Z,59.80
2019-03-13T01:26:47.432Z,59.90
2019-03-13T01:29:19.134Z,59.80
2019-03-13T01:32:21.335Z,60.00
2019-03-13T01:35:04.901Z,59.80
2019-03-13T01:37:36.072Z,59.90
2019-03-13T01:40:11.700Z,59.90
2019-03-13T01:42:42.807Z,59.90
2019-03-13T01:45:14.078Z,59.80
2019-03-13T01:47:46.251Z,59.90
2019-03-13T01:50:17.337Z,60.00
2019-03-13T01:52:48.554Z,60.00
2019-03-13T01:55:19.600Z,60.10
2019-03-13T01:57:50.611Z,60.20
2019-03-13T02:00:21.672Z,60.30
2019-03-13T02:02:52.655Z,60.40
2019-03-13T02:05:24.763Z,60.40
2019-03-13T02:07:56.068Z,60.60
2019-03-13T02:10:27.182Z,60.60
2019-03-13T02:12:58.315Z,60.60
2019-03-13T02:15:29.321Z,60.40
2019-03-13T02:18:00.518Z,60.20
2019-03-13T02:20:32.808Z,60.00
2019-03-13T02:23:03.859Z,59.80
2019-03-13T02:25:34.910Z,59.70
2019-03-13T02:28:06.139Z,59.60
2019-03-13T02:30:37.252Z,59.70
2019-03-13T02:33:08.590Z,59.80
2019-03-13T02:35:39.776Z,59.80
2019-03-13T02:38:10.851Z,60.40
2019-03-13T02:40:42.918Z,59.60
2019-03-13T02:43:14.008Z,59.80
2019-03-13T02:45:44.976Z,59.80
2019-03-13T02:48:15.987Z,59.80
2019-03-13T02:50:46.927Z,59.80
2019-03-13T02:53:18.079Z,59.80
2019-03-13T02:55:49.089Z,59.90
2019-03-13T02:58:20.062Z,59.90
2019-03-13T03:01:00.333Z,60.00
2019-03-13T03:03:33.954Z,60.10
2019-03-13T03:06:05.176Z,60.00
2019-03-13T03:08:36.188Z,60.20
2019-03-13T03:11:07.448Z,60.20
2019-03-13T03:13:38.494Z,60.20
2019-03-13T03:16:09.399Z,60.10
2019-03-13T03:18:40.740Z,60.10
2019-03-13T03:21:11.827Z,60.10
2019-03-13T03:23:45.146Z,60.10
2019-03-13T03:26:15.696Z,60.10
2019-03-13T03:28:46.868Z,60.30
2019-03-13T03:31:17.810Z,60.30
2019-03-13T03:34:02.737Z,60.10
2019-03-13T03:36:37.057Z,60.70
2019-03-13T03:39:08.720Z,60.20
2019-03-13T03:41:40.968Z,60.30
2019-03-13T03:44:12.171Z,60.40
2019-03-13T03:46:43.071Z,60.30
2019-03-13T03:49:14.147Z,60.20
2019-03-13T03:51:45.146Z,60.10
2019-03-13T03:54:16.302Z,60.10
2019-03-13T03:56:47.356Z,60.20
2019-03-13T03:59:18.552Z,60.20
2019-03-13T04:01:49.441Z,60.10
2019-03-13T04:04:20.549Z,60.10
2019-03-13T04:06:52.027Z,59.80
2019-03-13T04:09:24.141Z,59.90
2019-03-13T04:11:54.999Z,59.80
2019-03-13T04:14:26.132Z,59.90
2019-03-13T04:16:57.260Z,59.90
2019-03-13T04:19:28.352Z,60.00
2019-03-13T04:21:59.366Z,60.00
2019-03-13T04:24:30.389Z,59.80
2019-03-13T04:27:01.446Z,59.70
2019-03-13T04:29:32.414Z,59.70
2019-03-13T04:32:03.499Z,59.70
2019-03-13T04:34:34.588Z,59.50
2019-03-13T04:37:05.499Z,59.50
2019-03-13T04:39:36.473Z,59.50
2019-03-13T04:42:08.068Z,59.50
2019-03-13T04:44:39.862Z,59.40
2019-03-13T04:47:10.974Z,59.40
2019-03-13T04:49:42.009Z,59.30
2019-03-13T04:52:12.912Z,59.30
2019-03-13T04:54:43.992Z,59.30
2019-03-13T04:57:15.008Z,59.20
2019-03-13T04:59:46.332Z,59.10
2019-03-13T05:02:17.286Z,59.10
2019-03-13T05:04:48.380Z,59.00
2019-03-13T05:07:19.336Z,58.90
2019-03-13T05:09:50.589Z,59.00
2019-03-13T05:12:21.547Z,59.10
2019-03-13T05:14:52.875Z,59.00
2019-03-13T05:17:24.098Z,58.90
2019-03-13T05:19:55.135Z,58.80
2019-03-13T05:22:27.815Z,58.80
2019-03-13T05:24:59.496Z,58.70
2019-03-13T05:27:30.654Z,58.60
2019-03-13T05:32:52.862Z,58.40
2019-03-13T05:35:23.938Z,58.50
2019-03-13T05:37:55.670Z,58.30
2019-03-13T05:40:27.358Z,58.20
2019-03-13T05:42:58.515Z,58.10
2019-03-13T05:45:29.561Z,58.00
2019-03-13T05:48:00.621Z,57.90
2019-03-13T05:50:31.794Z,57.80
2019-03-13T05:53:03.855Z,57.60
2019-03-13T05:55:35.026Z,57.50
2019-03-13T05:58:06.851Z,57.40
2019-03-13T06:00:38.578Z,58.10
2019-03-13T06:03:10.090Z,57.30
2019-03-13T06:05:41.650Z,57.30
2019-03-13T06:08:14.369Z,57.10
2019-03-13T06:10:45.933Z,56.90
2019-03-13T06:13:17.689Z,56.90
2019-03-13T06:15:49.337Z,56.90
2019-03-13T06:18:21.058Z,56.80
2019-03-13T06:20:52.891Z,56.80
2019-03-13T06:23:24.609Z,56.70
2019-03-13T06:25:56.291Z,56.50
2019-03-13T06:28:28.169Z,56.50
2019-03-13T06:31:01.097Z,56.10
2019-03-13T06:33:32.737Z,56.00
2019-03-13T06:36:04.579Z,55.70
2019-03-13T06:38:36.174Z,55.70
2019-03-13T06:41:07.864Z,55.60
2019-03-13T06:43:39.698Z,55.40
2019-03-13T06:46:13.981Z,55.50
2019-03-13T06:48:45.939Z,55.40
2019-03-13T06:51:17.770Z,55.80
2019-03-13T06:53:50.071Z,56.40
2019-03-13T06:56:22.176Z,55.80
2019-03-13T06:59:08.368Z,56.00
2019-03-13T07:01:49.310Z,56.30
2019-03-13T07:04:58.360Z,56.80
2019-03-13T07:07:47.104Z,57.30
2019-03-13T07:10:39.745Z,57.90
2019-03-13T07:13:23.271Z,58.70
2019-03-13T07:16:19.896Z,59.70
2019-03-13T07:18:59.210Z,60.60
2019-03-13T07:21:43.296Z,61.70
2019-03-13T07:24:47.439Z,62.70
2019-03-13T07:27:30.127Z,63.80
2019-03-13T07:30:13.811Z,64.70
2019-03-13T07:33:18.864Z,65.50
2019-03-13T07:36:08.571Z,66.10
2019-03-13T07:39:07.821Z,66.80
2019-03-13T07:42:10.250Z,67.20
2019-03-13T07:45:09.072Z,68.00
2019-03-13T07:47:53.842Z,68.40
2019-03-13T07:50:34.201Z,68.70
2019-03-13T07:53:22.895Z,69.00
2019-03-13T07:56:05.971Z,69.20
2019-03-13T07:58:51.052Z,69.50
2019-03-13T08:01:56.098Z,69.70
2019-03-13T08:04:52.854Z,69.80
2019-03-13T08:07:41.439Z,70.00
2019-03-13T08:10:30.502Z,70.10
2019-03-13T08:13:17.275Z,70.00
2019-03-13T08:16:05.988Z,70.10
2019-03-13T08:19:01.892Z,70.20
2019-03-13T08:21:45.833Z,70.30
2019-03-13T08:24:34.526Z,70.40
2019-03-13T08:27:36.871Z,70.60
2019-03-13T08:30:36.112Z,70.60
2019-03-13T08:33:15.340Z,70.70
2019-03-13T08:36:05.412Z,70.70
2019-03-13T08:38:58.221Z,70.70
2019-03-13T08:41:57.392Z,70.70
2019-03-13T08:44:47.980Z,70.60
2019-03-13T08:47:31.061Z,70.60
2019-03-13T08:50:17.923Z,70.70
2019-03-13T08:53:10.389Z,70.60
2019-03-13T08:55:51.670Z,70.50
2019-03-13T08:58:38.917Z,71.40
2019-03-13T09:01:29.717Z,70.90
2019-03-13T09:04:29.089Z,70.60
2019-03-13T09:07:31.621Z,70.80
2019-03-13T09:10:17.925Z,70.80
2019-03-13T09:13:01.300Z,70.70
2019-03-13T09:16:00.405Z,70.90
2019-03-13T09:18:56.875Z,71.10
2019-03-13T09:21:59.198Z,71.10
2019-03-13T09:24:56.198Z,70.90
2019-03-13T09:27:46.646Z,70.90
2019-03-13T09:30:40.126Z,70.90
2019-03-13T09:33:30.983Z,70.20
2019-03-13T09:36:21.722Z,69.80
2019-03-13T09:39:25.636Z,70.00
2019-03-13T09:42:21.963Z,70.00
2019-03-13T09:45:15.156Z,70.00
2019-03-13T09:48:08.368Z,69.70
2019-03-13T09:50:59.595Z,70.00
2019-03-13T09:54:08.080Z,69.60
2019-03-13T09:57:00.209Z,69.90
2019-03-13T09:59:59.894Z,70.00
2019-03-13T10:02:50.689Z,70.30
2019-03-13T10:05:30.144Z,70.10
2019-03-13T10:08:23.287Z,70.00
2019-03-13T10:11:12.959Z,68.70
2019-03-13T10:14:09.620Z,66.40
2019-03-13T10:16:53.267Z,62.60
2019-03-13T10:19:56.179Z,59.30
2019-03-13T10:23:00.643Z,59.70
2019-03-13T10:25:40.564Z,58.30
2019-03-13T10:28:27.685Z,56.90
2019-03-13T10:31:24.588Z,56.20
2019-03-13T10:34:18.962Z,54.50
2019-03-13T10:37:24.029Z,53.90
2019-03-13T10:40:20.479Z,52.70
2019-03-13T10:43:04.079Z,52.20
2019-03-13T10:45:54.436Z,51.20
2019-03-13T10:48:43.016Z,50.00
2019-03-13T10:51:38.970Z,49.50
2019-03-13T10:54:35.094Z,49.70
2019-03-13T10:57:24.152Z,47.80
2019-03-13T11:00:18.327Z,48.90
2019-03-13T11:03:06.030Z,47.20
2019-03-13T11:06:05.506Z,46.70
2019-03-13T11:09:08.491Z,46.40
2019-03-13T11:11:51.638Z,43.00
2019-03-13T11:14:42.058Z,42.70
2019-03-13T11:17:32.504Z,41.70
2019-03-13T11:20:23.029Z,43.70
2019-03-13T11:23:13.603Z,42.10
2019-03-13T11:26:03.821Z,41.10
2019-03-13T11:28:47.982Z,40.10
2019-03-13T11:31:37.368Z,40.50
2019-03-13T11:34:20.062Z,40.70
2019-03-13T11:37:05.267Z,41.20
2019-03-13T11:40:06.026Z,41.90
2019-03-13T11:42:53.631Z,41.30
2019-03-13T11:45:50.263Z,41.90
2019-03-13T11:48:34.220Z,43.80
2019-03-13T11:51:30.591Z,44.50
2019-03-13T11:54:21.650Z,43.50
2019-03-13T11:57:15.077Z,43.30
2019-03-13T12:00:03.882Z,44.40
2019-03-13T12:02:54.141Z,45.20
2019-03-13T12:05:55.956Z,45.90
2019-03-13T12:08:49.192Z,44.80
2019-03-13T12:11:42.335Z,45.40
2019-03-13T12:14:26.696Z,44.20
2019-03-13T12:17:04.457Z,43.40
2019-03-13T12:19:44.410Z,43.00
2019-03-13T12:22:32.111Z,42.50
2019-03-13T12:25:26.469Z,41.30
2019-03-13T12:28:10.130Z,38.90
2019-03-13T12:30:57.263Z,37.30
2019-03-13T12:33:52.588Z,35.20
2019-03-13T12:36:42.093Z,35.60
2019-03-13T12:39:31.620Z,34.30
2019-03-13T12:42:28.007Z,35.00
2019-03-13T12:45:21.116Z,34.90
2019-03-13T12:48:16.937Z,34.60
2019-03-13T12:50:58.705Z,34.30
2019-03-13T12:53:52.370Z,35.40
2019-03-13T12:56:52.092Z,35.80
2019-03-13T12:59:40.241Z,38.20
2019-03-13T13:02:25.441Z,40.50
2019-03-13T13:05:21.291Z,41.90
2019-03-13T13:08:06.111Z,42.00
2019-03-13T13:10:50.358Z,41.70
2019-03-13T13:13:55.405Z,42.40
2019-03-13T13:16:34.909Z,42.70
2019-03-13T13:19:06.642Z,43.50
2019-03-13T13:21:37.975Z,43.10
2019-03-13T13:24:09.975Z,43.40
2019-03-13T13:26:41.707Z,43.10
2019-03-13T13:29:13.641Z,42.90
2019-03-13T13:31:44.867Z,41.40
2019-03-13T13:34:15.907Z,41.60
2019-03-13T13:36:46.950Z,42.50
2019-03-13T13:39:19.954Z,41.60
2019-03-13T13:41:51.802Z,41.90
2019-03-13T13:44:24.039Z,41.50
2019-03-13T13:46:56.059Z,41.90
2019-03-13T13:49:27.145Z,42.40
2019-03-13T13:51:58.699Z,42.10
2019-03-13T13:54:30.182Z,42.60
2019-03-13T13:57:01.746Z,43.10
2019-03-13T13:59:33.533Z,41.80
2019-03-13T14:02:04.847Z,42.10
2019-03-13T14:04:36.054Z,43.00
2019-03-13T14:07:08.405Z,42.60
2019-03-13T14:09:39.957Z,42.50
2019-03-13T14:12:11.771Z,42.40
2019-03-13T14:14:45.892Z,42.90
2019-03-13T14:17:17.517Z,43.20
2019-03-13T14:19:49.430Z,43.50
2019-03-13T14:22:21.200Z,42.90
2019-03-13T14:24:53.606Z,42.90
2019-03-13T14:27:25.345Z,43.40
2019-03-13T14:29:57.096Z,43.40
2019-03-13T14:32:28.866Z,43.20
2019-03-13T14:35:00.678Z,42.90
2019-03-13T14:37:32.444Z,43.20
2019-03-13T14:40:04.899Z,42.60
2019-03-13T14:42:36.589Z,43.00
2019-03-13T14:45:08.405Z,43.40
2019-03-13T14:47:40.190Z,42.80
2019-03-13T14:50:13.261Z,44.00
2019-03-13T14:52:45.410Z,44.10
2019-03-13T14:55:17.575Z,44.40
2019-03-13T14:57:49.268Z,44.20
2019-03-13T15:00:21.046Z,44.60
2019-03-13T15:02:55.166Z,44.60
2019-03-13T15:05:27.916Z,44.80
2019-03-13T15:07:59.350Z,45.00
2019-03-13T15:10:32.274Z,45.30
2019-03-13T15:13:05.137Z,45.00
2019-03-13T15:15:36.515Z,45.50
2019-03-13T15:18:08.183Z,45.70
2019-03-13T15:20:39.860Z,45.50
2019-03-13T15:23:11.679Z,45.80
2019-03-13T15:25:43.297Z,45.70
2019-03-13T15:28:17.323Z,46.60
2019-03-13T15:30:48.277Z,46.20
2019-03-13T15:33:19.504Z,46.50
2019-03-13T15:35:51.364Z,46.40
2019-03-13T15:38:22.380Z,46.40
2019-03-13T15:40:54.324Z,46.60
2019-03-13T15:43:25.974Z,46.30
2019-03-13T15:45:58.733Z,46.60
2019-03-13T15:48:33.713Z,46.90
2019-03-13T15:51:06.765Z,46.80
2019-03-13T15:53:39.191Z,46.80
2019-03-13T15:56:10.415Z,46.90
2019-03-13T15:58:41.617Z,47.00
2019-03-13T16:01:13.308Z,47.00
2019-03-13T16:03:44.587Z,47.10
2019-03-13T16:10:05.795Z,47.50
2019-03-13T16:12:56.840Z,47.70
2019-03-13T16:15:29.252Z,48.00
2019-03-13T16:18:01.538Z,47.80
2019-03-13T16:20:33.439Z,47.90
2019-03-13T16:23:05.290Z,47.80
2019-03-13T16:25:36.935Z,48.00
2019-03-13T16:28:08.466Z,48.30
2019-03-13T16:30:41.650Z,48.10
2019-03-13T16:33:13.557Z,48.30
2019-03-13T16:35:45.583Z,48.20
2019-03-13T16:38:19.289Z,48.10
2019-03-13T16:40:51.443Z,48.40
2019-03-13T16:43:24.978Z,48.70
2019-03-13T16:45:56.602Z,48.50
2019-03-13T16:48:28.702Z,48.80
2019-03-13T16:51:02.864Z,48.60
2019-03-13T16:53:35.307Z,48.30
2019-03-13T16:56:11.045Z,48.50
2019-03-13T16:58:43.769Z,48.40
2019-03-13T17:01:15.492Z,48.40
2019-03-13T17:03:47.243Z,48.40
2019-03-13T17:06:18.465Z,48.40
2019-03-13T17:08:50.003Z,48.20
2019-03-13T17:11:21.627Z,48.20
2019-03-13T17:13:53.059Z,48.30
2019-03-13T17:16:24.195Z,48.30
2019-03-13T17:18:55.438Z,48.20
2019-03-13T17:21:26.849Z,48.40
2019-03-13T17:23:58.096Z,48.20
2019-03-13T17:26:29.094Z,48.20
2019-03-13T17:29:00.241Z,47.80
2019-03-13T17:31:31.364Z,47.90
2019-03-13T17:34:02.599Z,47.80
2019-03-13T17:36:33.572Z,48.00
2019-03-13T17:39:06.412Z,48.20
2019-03-13T17:41:39.086Z,48.20
2019-03-13T17:44:10.477Z,48.40
2019-03-13T17:46:41.706Z,48.00
2019-03-13T17:49:13.283Z,48.00
2019-03-13T17:51:48.126Z,48.10
2019-03-13T17:54:18.073Z,48.40
2019-03-13T17:56:49.676Z,48.30
2019-03-13T17:59:21.328Z,48.20
2019-03-13T18:01:52.326Z,48.30
2019-03-13T18:04:23.929Z,48.10
2019-03-13T18:06:55.801Z,48.20
2019-03-13T18:09:27.453Z,47.80
2019-03-13T18:11:59.181Z,47.70
2019-03-13T18:14:32.183Z,47.80
2019-03-13T18:17:03.716Z,47.80
2019-03-13T18:19:35.591Z,47.80
2019-03-13T18:22:08.040Z,47.60
2019-03-13T18:24:39.951Z,47.70
2019-03-13T18:27:11.620Z,47.50
2019-03-13T18:29:43.449Z,47.70
2019-03-13T18:32:15.241Z,47.80
2019-03-13T18:34:48.751Z,47.50
2019-03-13T18:37:20.486Z,47.60
2019-03-13T18:39:55.048Z,47.20
2019-03-13T18:42:27.547Z,47.30
2019-03-13T18:45:01.260Z,47.00
2019-03-13T18:47:33.708Z,46.80
2019-03-13T18:50:05.780Z,46.60
2019-03-13T18:52:37.583Z,46.30
2019-03-13T18:55:10.353Z,46.70
2019-03-13T18:57:42.316Z,46.60
2019-03-13T19:00:21.134Z,46.80
2019-03-13T19:02:52.907Z,47.00
2019-03-13T19:05:24.636Z,46.40
2019-03-13T19:07:56.266Z,46.50
2019-03-13T19:10:27.765Z,46.70
2019-03-13T19:12:59.511Z,46.80
2019-03-13T19:15:31.360Z,46.90
2019-03-13T19:18:02.895Z,46.90
2019-03-13T19:20:34.674Z,47.00
2019-03-13T19:23:06.299Z,47.00
2019-03-13T19:25:38.135Z,47.20
2019-03-13T19:28:10.165Z,47.20
2019-03-13T19:30:41.880Z,47.30
2019-03-13T19:33:13.474Z,47.30
2019-03-13T19:35:44.824Z,47.40
2019-03-13T19:38:17.535Z,47.10
2019-03-13T19:40:48.837Z,47.50
2019-03-13T19:43:20.020Z,47.30
2019-03-13T19:45:51.398Z,47.30
2019-03-13T19:48:23.026Z,47.30
2019-03-13T19:50:56.578Z,47.30
2019-03-13T19:53:28.106Z,47.50
2019-03-13T19:55:59.848Z,47.60
2019-03-13T19:58:31.580Z,47.50
2019-03-13T20:01:04.609Z,47.50
2019-03-13T20:03:36.015Z,48.00
2019-03-13T20:06:07.545Z,47.50
2019-03-13T20:08:39.617Z,47.40
2019-03-13T20:11:11.203Z,47.30
2019-03-13T20:13:42.361Z,47.30
2019-03-13T20:16:14.061Z,47.30
2019-03-13T20:18:46.192Z,47.20
2019-03-13T20:21:18.101Z,47.30
2019-03-13T20:23:50.366Z,47.50
2019-03-13T20:26:22.665Z,47.50
2019-03-13T20:28:54.450Z,47.50
2019-03-13T20:31:25.827Z,47.80
2019-03-13T20:33:59.886Z,47.50
2019-03-13T20:36:33.146Z,47.50
2019-03-13T20:39:06.232Z,47.60
2019-03-13T20:41:39.200Z,47.80
2019-03-13T20:44:10.443Z,47.90
2019-03-13T20:46:42.150Z,47.90
2019-03-13T20:49:13.786Z,48.00
2019-03-13T20:51:45.359Z,47.90
2019-03-13T20:54:17.036Z,48.00
2019-03-13T20:56:48.214Z,47.80
2019-03-13T20:59:19.406Z,47.80
2019-03-13T21:01:50.621Z,47.60
2019-03-13T21:04:22.329Z,47.60
2019-03-13T21:06:54.446Z,47.50
2019-03-13T21:09:28.600Z,47.70
2019-03-13T21:11:59.806Z,47.80
2019-03-13T21:14:35.745Z,47.80
2019-03-13T21:17:05.881Z,47.80
2019-03-13T21:19:37.054Z,47.80
2019-03-13T21:22:08.515Z,47.90
2019-03-13T21:24:39.471Z,47.80
2019-03-13T21:27:10.728Z,47.70
2019-03-13T21:29:42.861Z,47.80
2019-03-13T21:32:14.243Z,47.80
2019-03-13T21:34:45.307Z,47.70
2019-03-13T21:37:16.437Z,47.40
2019-03-13T21:39:47.515Z,47.50
2019-03-13T21:42:18.657Z,47.40
2019-03-13T21:44:49.824Z,47.50
2019-03-13T21:47:20.845Z,47.70
2019-03-13T21:49:51.897Z,47.60
2019-03-13T21:52:22.970Z,47.70
2019-03-13T21:54:54.028Z,47.80
2019-03-13T21:57:25.012Z,47.60
2019-03-13T21:59:55.920Z,47.40
2019-03-13T22:02:32.544Z,47.70
2019-03-13T22:04:59.652Z,47.80
2019-03-13T22:07:30.873Z,47.90
2019-03-13T22:10:02.065Z,47.80
2019-03-13T22:12:33.349Z,47.90
2019-03-13T22:15:04.506Z,48.00
2019-03-13T22:17:36.846Z,48.00
2019-03-13T22:20:11.123Z,48.10
2019-03-13T22:22:40.845Z,48.80
2019-03-13T22:25:12.762Z,48.20
2019-03-13T22:27:44.029Z,48.10
2019-03-13T22:30:17.876Z,48.10
2019-03-13T22:32:48.891Z,48.50
2019-03-13T22:35:20.139Z,48.30
2019-03-13T22:37:51.352Z,48.50
2019-03-13T22:40:24.696Z,48.60
2019-03-13T22:42:55.797Z,48.60
2019-03-13T22:45:26.751Z,48.50
2019-03-13T22:47:57.813Z,48.50
2019-03-13T22:50:28.734Z,48.50
2019-03-13T22:52:59.715Z,48.40
2019-03-13T22:55:30.649Z,48.60
2019-03-13T22:58:01.720Z,48.60
2019-03-13T23:00:57.412Z,48.60
2019-03-13T23:03:31.393Z,48.80
2019-03-13T23:06:04.020Z,48.70
2019-03-13T23:08:35.116Z,48.60
2019-03-13T23:11:06.332Z,48.50
2019-03-13T23:13:37.616Z,48.70
2019-03-13T23:16:08.789Z,48.70
2019-03-13T23:18:39.753Z,48.70
2019-03-13T23:21:11.238Z,48.70
2019-03-13T23:23:43.333Z,48.70
2019-03-13T23:26:14.566Z,48.70
2019-03-13T23:28:45.599Z,48.70
2019-03-13T23:31:16.614Z,49.00
2019-03-13T23:33:47.655Z,49.20
2019-03-13T23:36:18.593Z,49.20
2019-03-13T23:38:49.503Z,49.20
2019-03-13T23:41:20.449Z,49.30
2019-03-13T23:43:51.400Z,49.20
2019-03-13T23:46:22.316Z,49.40
2019-03-13T23:48:53.348Z,49.20
2019-03-13T23:51:24.202Z,49.30
2019-03-13T23:53:55.151Z,49.50
2019-03-13T23:56:26.033Z,49.50
2019-03-13T23:58:58.515Z,49.30
